createdAt,value
2019-03-12T00:00:29.294Z,83.30
2019-03-12T00:01:29.289Z,83.30
2019-03-12T00:02:29.276Z,83.34
2019-03-12T00:03:29.274Z,83.40
2019-03-12T00:04:29.375Z,83.09
2019-03-12T00:05:29.259Z,83.61
2019-03-12T00:06:29.262Z,83.61
2019-03-12T00:07:29.273Z,83.20
2019-03-12T00:08:29.254Z,83.09
2019-03-12T00:09:29.260Z,84.23
2019-03-12T00:10:29.250Z,84.03
2019-03-12T00:11:29.279Z,84.03
2019-03-12T00:12:29.262Z,84.48
2019-03-12T00:13:29.253Z,84.17
2019-03-12T00:14:29.263Z,85.83
2019-03-12T00:15:29.239Z,85.94
2019-03-12T00:16:29.236Z,86.46
2019-03-12T00:17:29.228Z,86.46
2019-03-12T00:18:29.214Z,86.71
2019-03-12T00:19:29.225Z,86.98
2019-03-12T00:20:29.207Z,87.02
2019-03-12T00:21:29.193Z,87.43
2019-03-12T00:22:29.187Z,88.06
2019-03-12T00:23:29.183Z,87.85
2019-03-12T00:24:29.198Z,88.06
2019-03-12T00:25:29.179Z,88.68
2019-03-12T00:26:29.170Z,88.68
2019-03-12T00:27:29.164Z,88.79
2019-03-12T00:28:29.156Z,88.27
2019-03-12T00:29:29.143Z,88.06
2019-03-12T00:30:29.152Z,88.48
2019-03-12T00:31:29.134Z,88.64
2019-03-12T00:32:29.144Z,88.79
2019-03-12T00:33:29.112Z,88.58
2019-03-12T00:34:29.128Z,88.68
2019-03-12T00:35:29.128Z,88.48
2019-03-12T00:36:29.115Z,88.68
2019-03-12T00:37:29.111Z,86.71
2019-03-12T00:38:29.118Z,85.56
2019-03-12T00:39:29.121Z,85.98
2019-03-12T00:40:29.120Z,86.08
2019-03-12T00:41:29.097Z,86.57
2019-03-12T00:42:29.088Z,86.57
2019-03-12T00:43:29.088Z,86.71
2019-03-12T00:44:29.072Z,86.19
2019-03-12T00:45:29.083Z,86.40
2019-03-12T00:46:29.062Z,86.60
2019-03-12T00:47:29.068Z,87.12
2019-03-12T00:48:29.067Z,87.75
2019-03-12T00:49:29.118Z,88.37
2019-03-12T00:50:29.073Z,87.96
2019-03-12T00:51:29.038Z,88.27
2019-03-12T00:52:29.032Z,88.48
2019-03-12T00:53:29.029Z,88.62
2019-03-12T00:54:29.017Z,88.48
2019-03-12T00:55:29.022Z,88.06
2019-03-12T00:56:29.002Z,88.27
2019-03-12T00:57:28.991Z,88.58
2019-03-12T00:58:28.982Z,87.75
2019-03-12T00:59:28.973Z,87.75
2019-03-12T01:00:28.983Z,87.75
2019-03-12T01:01:28.991Z,88.10
2019-03-12T01:02:28.983Z,87.12
2019-03-12T01:03:28.968Z,87.12
2019-03-12T01:04:28.964Z,87.96
2019-03-12T01:05:28.966Z,87.33
2019-03-12T01:06:28.945Z,87.02
2019-03-12T01:07:28.938Z,86.81
2019-03-12T01:08:28.930Z,86.91
2019-03-12T01:09:28.923Z,87.12
2019-03-12T01:10:28.926Z,86.71
2019-03-12T01:11:28.909Z,86.40
2019-03-12T01:12:28.900Z,86.40
2019-03-12T01:13:28.898Z,86.08
2019-03-12T01:14:28.887Z,86.50
2019-03-12T01:15:28.887Z,86.60
2019-03-12T01:16:28.877Z,86.40
2019-03-12T01:17:28.865Z,86.50
2019-03-12T01:18:28.858Z,86.71
2019-03-12T01:19:28.860Z,86.81
2019-03-12T01:20:28.858Z,87.02
2019-03-12T01:21:28.845Z,86.91
2019-03-12T01:22:28.850Z,86.71
2019-03-12T01:23:28.840Z,86.91
2019-03-12T01:24:28.832Z,85.98
2019-03-12T01:25:28.838Z,86.08
2019-03-12T01:26:28.823Z,86.81
2019-03-12T01:27:28.818Z,87.12
2019-03-12T01:28:28.800Z,86.43
2019-03-12T01:29:28.795Z,86.71
2019-03-12T01:30:28.803Z,87.02
2019-03-12T01:31:28.789Z,86.71
2019-03-12T01:32:28.789Z,86.81
2019-03-12T01:33:28.783Z,86.60
2019-03-12T01:34:28.785Z,87.02
2019-03-12T01:35:28.775Z,87.02
2019-03-12T01:36:28.782Z,87.23
2019-03-12T01:37:28.777Z,87.43
2019-03-12T01:38:28.759Z,87.75
2019-03-12T01:39:28.757Z,87.85
2019-03-12T01:40:28.753Z,87.89
2019-03-12T01:41:28.756Z,88.48
2019-03-12T01:42:28.736Z,88.42
2019-03-12T01:43:28.732Z,88.73
2019-03-12T01:44:28.750Z,88.48
2019-03-12T01:45:28.738Z,88.42
2019-03-12T01:46:28.748Z,89.14
2019-03-12T01:47:28.728Z,89.56
2019-03-12T01:48:28.720Z,89.45
2019-03-12T01:49:28.711Z,89.45
2019-03-12T01:50:28.710Z,89.66
2019-03-12T01:51:31.074Z,90.08
2019-03-12T01:52:28.687Z,89.87
2019-03-12T01:53:28.678Z,89.76
2019-03-12T01:54:28.681Z,89.91
2019-03-12T01:55:28.679Z,90.08
2019-03-12T01:56:28.666Z,89.76
2019-03-12T01:57:28.650Z,89.76
2019-03-12T01:58:28.651Z,90.50
2019-03-12T01:59:28.638Z,90.39
2019-03-12T02:00:28.636Z,91.33
2019-03-12T02:01:28.637Z,91.12
2019-03-12T02:02:28.640Z,91.02
2019-03-12T02:03:28.628Z,91.12
2019-03-12T02:04:28.625Z,90.54
2019-03-12T02:05:28.617Z,90.81
2019-03-12T02:06:28.616Z,90.95
2019-03-12T02:07:28.598Z,91.06
2019-03-12T02:08:28.665Z,90.95
2019-03-12T02:09:28.585Z,90.70
2019-03-12T02:10:28.576Z,90.85
2019-03-12T02:11:28.586Z,91.68
2019-03-12T02:12:28.564Z,92.10
2019-03-12T02:13:28.556Z,91.27
2019-03-12T02:14:28.605Z,91.89
2019-03-12T02:15:28.552Z,91.68
2019-03-12T02:16:28.551Z,92.00
2019-03-12T02:17:28.560Z,91.47
2019-03-12T02:18:28.540Z,91.89
2019-03-12T02:19:28.527Z,91.78
2019-03-12T02:20:28.527Z,91.52
2019-03-12T02:21:28.516Z,91.68
2019-03-12T02:22:28.537Z,92.10
2019-03-12T02:23:29.102Z,91.68
2019-03-12T02:24:34.508Z,92.21
2019-03-12T02:25:28.513Z,92.10
2019-03-12T02:26:28.495Z,91.52
2019-03-12T02:27:28.502Z,92.21
2019-03-12T02:28:28.481Z,92.21
2019-03-12T02:29:28.477Z,92.00
2019-03-12T02:30:28.483Z,92.14
2019-03-12T02:31:28.479Z,92.14
2019-03-12T02:32:28.466Z,92.66
2019-03-12T02:33:28.454Z,92.66
2019-03-12T02:34:28.460Z,93.18
2019-03-12T02:35:28.449Z,92.97
2019-03-12T02:36:28.439Z,93.50
2019-03-12T02:37:28.450Z,93.75
2019-03-12T02:38:28.419Z,93.60
2019-03-12T02:39:28.417Z,93.81
2019-03-12T02:40:28.408Z,93.71
2019-03-12T02:41:28.404Z,93.81
2019-03-12T02:42:28.405Z,93.60
2019-03-12T02:43:28.386Z,93.50
2019-03-12T02:44:28.386Z,93.65
2019-03-12T02:45:28.381Z,93.50
2019-03-12T02:46:28.373Z,93.85
2019-03-12T02:47:28.376Z,93.75
2019-03-12T02:48:28.363Z,93.85
2019-03-12T02:49:28.357Z,93.65
2019-03-12T02:50:28.366Z,93.65
2019-03-12T02:51:28.368Z,93.65
2019-03-12T02:52:28.363Z,93.85
2019-03-12T02:53:28.341Z,93.85
2019-03-12T02:54:28.336Z,93.54
2019-03-12T02:55:28.328Z,92.56
2019-03-12T02:56:28.318Z,92.97
2019-03-12T02:57:28.332Z,92.60
2019-03-12T02:58:28.341Z,92.29
2019-03-12T02:59:28.294Z,92.35
2019-03-12T03:00:28.300Z,92.08
2019-03-12T03:01:28.280Z,92.40
2019-03-12T03:02:28.289Z,92.50
2019-03-12T03:03:28.270Z,92.40
2019-03-12T03:04:28.267Z,92.56
2019-03-12T03:05:28.251Z,92.87
2019-03-12T03:06:28.244Z,92.66
2019-03-12T03:07:28.243Z,92.56
2019-03-12T03:08:28.239Z,92.66
2019-03-12T03:09:28.218Z,92.08
2019-03-12T03:10:28.220Z,92.56
2019-03-12T03:11:28.217Z,92.25
2019-03-12T03:12:28.213Z,92.25
2019-03-12T03:13:28.216Z,92.03
2019-03-12T03:14:28.197Z,91.93
2019-03-12T03:15:28.189Z,91.72
2019-03-12T03:16:28.177Z,92.35
2019-03-12T03:17:28.175Z,91.72
2019-03-12T03:18:28.170Z,92.25
2019-03-12T03:19:28.151Z,92.25
2019-03-12T03:20:28.146Z,92.08
2019-03-12T03:21:28.142Z,91.93
2019-03-12T03:22:28.139Z,91.72
2019-03-12T03:23:28.134Z,91.87
2019-03-12T03:24:28.134Z,91.93
2019-03-12T03:25:28.123Z,92.08
2019-03-12T03:26:28.111Z,92.18
2019-03-12T03:27:29.508Z,91.93
2019-03-12T03:28:29.111Z,91.83
2019-03-12T03:29:28.095Z,91.72
2019-03-12T03:30:28.088Z,92.25
2019-03-12T03:31:29.090Z,92.08
2019-03-12T03:32:29.074Z,91.83
2019-03-12T03:33:28.090Z,92.35
2019-03-12T03:34:28.985Z,91.62
2019-03-12T03:35:29.059Z,91.93
2019-03-12T03:36:28.048Z,90.89
2019-03-12T03:37:28.058Z,91.00
2019-03-12T03:38:28.067Z,91.14
2019-03-12T03:39:28.043Z,91.10
2019-03-12T03:40:28.033Z,91.20
2019-03-12T03:41:28.037Z,90.89
2019-03-12T03:42:28.023Z,91.31
2019-03-12T03:43:28.042Z,91.20
2019-03-12T03:44:28.008Z,91.00
2019-03-12T03:45:28.010Z,91.10
2019-03-12T03:46:27.992Z,91.10
2019-03-12T03:47:28.012Z,91.00
2019-03-12T03:48:27.996Z,90.79
2019-03-12T03:49:28.035Z,91.00
2019-03-12T03:50:27.964Z,90.79
2019-03-12T03:51:27.966Z,91.00
2019-03-12T03:52:27.954Z,91.00
2019-03-12T03:53:27.964Z,90.37
2019-03-12T03:54:27.928Z,90.89
2019-03-12T03:55:28.931Z,91.04
2019-03-12T03:56:27.925Z,91.14
2019-03-12T03:57:27.938Z,90.89
2019-03-12T03:58:27.942Z,90.37
2019-03-12T03:59:27.927Z,90.79
2019-03-12T04:00:27.923Z,90.58
2019-03-12T04:01:27.911Z,90.47
2019-03-12T04:02:27.895Z,90.52
2019-03-12T04:03:28.903Z,90.26
2019-03-12T04:04:27.893Z,90.37
2019-03-12T04:05:28.898Z,90.47
2019-03-12T04:06:27.881Z,91.31
2019-03-12T04:07:27.875Z,90.62
2019-03-12T04:08:27.882Z,91.14
2019-03-12T04:09:27.884Z,90.83
2019-03-12T04:10:27.865Z,90.52
2019-03-12T04:11:27.860Z,90.52
2019-03-12T04:12:27.847Z,90.47
2019-03-12T04:13:27.837Z,90.83
2019-03-12T04:14:27.842Z,90.62
2019-03-12T04:15:27.825Z,90.52
2019-03-12T04:16:27.823Z,90.41
2019-03-12T04:17:27.808Z,90.41
2019-03-12T04:18:27.803Z,90.41
2019-03-12T04:19:27.813Z,90.10
2019-03-12T04:20:28.791Z,90.31
2019-03-12T04:21:27.780Z,90.62
2019-03-12T04:22:27.770Z,90.52
2019-03-12T04:23:27.766Z,90.20
2019-03-12T04:24:27.770Z,90.31
2019-03-12T04:25:27.758Z,90.00
2019-03-12T04:26:27.738Z,89.78
2019-03-12T04:27:27.730Z,90.20
2019-03-12T04:28:27.726Z,89.83
2019-03-12T04:29:27.737Z,90.00
2019-03-12T04:30:27.714Z,89.41
2019-03-12T04:31:27.701Z,89.78
2019-03-12T04:32:27.699Z,89.26
2019-03-12T04:33:27.689Z,89.16
2019-03-12T04:34:27.700Z,89.26
2019-03-12T04:35:27.675Z,89.37
2019-03-12T04:36:27.670Z,89.31
2019-03-12T04:37:27.674Z,89.41
2019-03-12T04:38:27.654Z,89.10
2019-03-12T04:39:27.658Z,89.72
2019-03-12T04:40:27.642Z,89.93
2019-03-12T04:41:27.629Z,89.20
2019-03-12T04:42:27.633Z,89.31
2019-03-12T04:43:27.612Z,89.93
2019-03-12T04:44:27.614Z,90.08
2019-03-12T04:45:27.612Z,89.41
2019-03-12T04:46:27.603Z,89.66
2019-03-12T04:47:27.611Z,89.66
2019-03-12T04:48:27.587Z,89.34
2019-03-12T04:49:27.581Z,88.82
2019-03-12T04:50:27.571Z,88.82
2019-03-12T04:51:27.570Z,88.89
2019-03-12T04:52:27.738Z,88.68
2019-03-12T04:53:27.554Z,88.41
2019-03-12T04:54:27.546Z,88.93
2019-03-12T04:55:27.543Z,88.93
2019-03-12T04:56:27.526Z,88.51
2019-03-12T04:57:27.789Z,88.30
2019-03-12T04:58:27.514Z,88.62
2019-03-12T04:59:27.509Z,88.72
2019-03-12T05:00:27.496Z,88.72
2019-03-12T05:01:27.494Z,88.51
2019-03-12T05:02:27.482Z,88.41
2019-03-12T05:03:27.484Z,88.41
2019-03-12T05:04:27.474Z,88.51
2019-03-12T05:05:27.465Z,88.45
2019-03-12T05:06:27.462Z,88.09
2019-03-12T05:07:27.445Z,88.51
2019-03-12T05:08:27.447Z,88.51
2019-03-12T05:09:27.430Z,88.93
2019-03-12T05:10:27.425Z,88.51
2019-03-12T05:11:27.417Z,88.65
2019-03-12T05:12:30.457Z,87.78
2019-03-12T05:13:27.451Z,88.09
2019-03-12T05:14:27.435Z,87.71
2019-03-12T05:15:27.426Z,87.57
2019-03-12T05:16:27.423Z,87.05
2019-03-12T05:17:27.410Z,87.05
2019-03-12T05:18:27.418Z,87.05
2019-03-12T05:19:27.396Z,86.94
2019-03-12T05:20:27.415Z,86.11
2019-03-12T05:21:27.399Z,86.21
2019-03-12T05:22:27.387Z,86.32
2019-03-12T05:23:27.393Z,86.43
2019-03-12T05:24:27.378Z,86.32
2019-03-12T05:25:27.374Z,86.74
2019-03-12T05:26:27.369Z,86.36
2019-03-12T05:27:27.351Z,86.11
2019-03-12T05:28:27.359Z,86.32
2019-03-12T05:29:27.350Z,86.11
2019-03-12T05:30:27.342Z,86.11
2019-03-12T05:31:27.323Z,86.21
2019-03-12T05:32:27.318Z,85.69
2019-03-12T05:33:27.321Z,86.21
2019-03-12T05:34:27.310Z,86.21
2019-03-12T05:35:27.307Z,86.07
2019-03-12T05:36:27.291Z,85.38
2019-03-12T05:37:27.288Z,85.80
2019-03-12T05:38:27.299Z,85.38
2019-03-12T05:39:27.271Z,84.92
2019-03-12T05:40:27.265Z,85.13
2019-03-12T05:41:27.266Z,85.03
2019-03-12T05:42:27.244Z,85.03
2019-03-12T05:43:27.274Z,84.92
2019-03-12T05:44:27.235Z,85.34
2019-03-12T05:45:27.233Z,84.82
2019-03-12T05:46:27.214Z,85.34
2019-03-12T05:47:27.211Z,85.13
2019-03-12T05:48:27.205Z,85.34
2019-03-12T05:49:27.217Z,85.90
2019-03-12T05:50:27.192Z,86.18
2019-03-12T05:51:27.188Z,86.28
2019-03-12T05:52:27.167Z,86.18
2019-03-12T05:53:28.173Z,86.18
2019-03-12T05:54:27.170Z,85.34
2019-03-12T05:55:27.159Z,84.82
2019-03-12T05:56:27.162Z,84.61
2019-03-12T05:57:27.151Z,85.24
2019-03-12T05:58:27.140Z,84.82
2019-03-12T05:59:27.160Z,84.19
2019-03-12T06:00:27.131Z,84.40
2019-03-12T06:01:27.150Z,85.10
2019-03-12T06:02:27.146Z,85.13
2019-03-12T06:03:27.137Z,84.72
2019-03-12T06:04:27.143Z,84.82
2019-03-12T06:05:27.118Z,84.72
2019-03-12T06:06:27.134Z,84.92
2019-03-12T06:07:27.102Z,85.24
2019-03-12T06:08:27.099Z,85.13
2019-03-12T06:09:30.527Z,85.24
2019-03-12T06:10:28.088Z,85.24
2019-03-12T06:11:27.073Z,84.72
2019-03-12T06:12:27.080Z,84.92
2019-03-12T06:13:27.059Z,84.82
2019-03-12T06:14:27.064Z,85.13
2019-03-12T06:15:27.055Z,84.50
2019-03-12T06:16:27.039Z,84.57
2019-03-12T06:17:27.027Z,84.57
2019-03-12T06:18:27.031Z,84.26
2019-03-12T06:19:27.042Z,84.36
2019-03-12T06:20:27.048Z,84.26
2019-03-12T06:21:27.034Z,84.36
2019-03-12T06:22:27.020Z,84.67
2019-03-12T06:23:27.014Z,85.05
2019-03-12T06:24:27.004Z,83.91
2019-03-12T06:25:27.015Z,84.12
2019-03-12T06:26:27.001Z,83.80
2019-03-12T06:27:28.004Z,83.56
2019-03-12T06:28:27.010Z,83.66
2019-03-12T06:29:27.014Z,82.72
2019-03-12T06:30:27.028Z,82.62
2019-03-12T06:31:27.010Z,82.79
2019-03-12T06:32:26.996Z,82.37
2019-03-12T06:33:26.989Z,82.06
2019-03-12T06:34:26.981Z,81.85
2019-03-12T06:35:26.983Z,81.71
2019-03-12T06:36:26.969Z,80.77
2019-03-12T06:37:26.954Z,80.53
2019-03-12T06:38:26.957Z,80.43
2019-03-12T06:39:26.938Z,79.76
2019-03-12T06:40:26.952Z,78.55
2019-03-12T06:41:26.924Z,76.54
2019-03-12T06:42:26.925Z,75.71
2019-03-12T06:43:26.907Z,76.12
2019-03-12T06:44:26.902Z,76.02
2019-03-12T06:45:26.912Z,75.95
2019-03-12T06:46:26.894Z,76.57
2019-03-12T06:47:26.889Z,77.30
2019-03-12T06:48:26.875Z,78.20
2019-03-12T06:49:26.870Z,79.55
2019-03-12T06:50:26.859Z,79.17
2019-03-12T06:51:26.881Z,78.93
2019-03-12T06:52:26.864Z,78.13
2019-03-12T06:53:26.856Z,75.88
2019-03-12T06:54:26.854Z,74.63
2019-03-12T06:55:26.845Z,72.29
2019-03-12T06:56:26.843Z,70.57
2019-03-12T06:57:26.833Z,69.29
2019-03-12T06:58:26.822Z,68.15
2019-03-12T06:59:26.818Z,67.78
2019-03-12T07:00:26.805Z,67.50
2019-03-12T07:01:26.811Z,67.34
2019-03-12T07:02:26.792Z,67.03
2019-03-12T07:03:26.795Z,66.58
2019-03-12T07:04:26.770Z,65.39
2019-03-12T07:05:26.768Z,64.98
2019-03-12T07:06:26.777Z,64.77
2019-03-12T07:07:26.757Z,63.92
2019-03-12T07:08:26.753Z,62.54
2019-03-12T07:09:26.767Z,62.57
2019-03-12T07:10:26.733Z,64.31
2019-03-12T07:11:26.727Z,66.44
2019-03-12T07:12:26.747Z,65.21
2019-03-12T07:13:26.737Z,65.58
2019-03-12T07:14:26.726Z,65.14
2019-03-12T07:15:26.713Z,63.56
2019-03-12T07:16:27.713Z,64.28
2019-03-12T07:17:26.717Z,64.65
2019-03-12T07:18:26.694Z,66.60
2019-03-12T07:19:26.692Z,67.71
2019-03-12T07:20:26.677Z,66.82
2019-03-12T07:21:27.676Z,66.03
2019-03-12T07:22:26.680Z,66.79
2019-03-12T07:23:26.659Z,67.82
2019-03-12T07:24:26.648Z,68.94
2019-03-12T07:25:26.654Z,71.46
2019-03-12T07:26:26.644Z,72.39
2019-03-12T07:27:26.669Z,72.53
2019-03-12T07:28:26.634Z,72.56
2019-03-12T07:29:26.646Z,72.42
2019-03-12T07:30:26.623Z,72.32
2019-03-12T07:31:26.755Z,71.80
2019-03-12T07:32:26.623Z,72.15
2019-03-12T07:33:26.637Z,72.46
2019-03-12T07:34:36.204Z,72.46
2019-03-12T07:35:28.609Z,73.18
2019-03-12T07:36:27.606Z,72.60
2019-03-12T07:37:26.593Z,72.80
2019-03-12T07:38:26.598Z,73.98
2019-03-12T07:39:26.574Z,74.36
2019-03-12T07:40:26.575Z,74.80
2019-03-12T07:41:32.427Z,75.54
2019-03-12T07:42:28.555Z,75.50
2019-03-12T07:43:26.567Z,75.54
2019-03-12T07:44:26.540Z,74.70
2019-03-12T07:45:26.531Z,75.19
2019-03-12T07:46:26.551Z,74.84
2019-03-12T07:47:35.666Z,74.05
2019-03-12T07:48:28.546Z,73.56
2019-03-12T07:49:26.527Z,73.91
2019-03-12T07:50:26.540Z,72.49
2019-03-12T07:51:26.532Z,71.97
2019-03-12T07:52:26.537Z,70.25
2019-03-12T07:53:26.525Z,69.25
2019-03-12T07:54:26.505Z,66.88
2019-03-12T07:55:29.652Z,66.36
2019-03-12T07:56:26.550Z,65.30
2019-03-12T07:57:26.505Z,65.64
2019-03-12T07:58:35.587Z,64.34
2019-03-12T07:59:28.477Z,64.45
2019-03-12T08:00:26.488Z,64.09
2019-03-12T08:01:26.482Z,65.20
2019-03-12T08:02:26.475Z,64.96
2019-03-12T08:03:26.477Z,64.45
2019-03-12T08:04:26.452Z,64.03
2019-03-12T08:05:28.327Z,65.64
2019-03-12T08:06:27.445Z,65.51
2019-03-12T08:07:26.431Z,63.49
2019-03-12T08:08:26.461Z,63.59
2019-03-12T08:09:26.420Z,64.21
2019-03-12T08:10:26.428Z,64.39
2019-03-12T08:11:26.403Z,61.68
2019-03-12T08:12:26.409Z,62.71
2019-03-12T08:13:26.412Z,63.31
2019-03-12T08:14:27.052Z,64.00
2019-03-12T08:15:27.379Z,63.49
2019-03-12T08:16:26.371Z,64.99
2019-03-12T08:17:26.368Z,63.07
2019-03-12T08:18:26.366Z,62.53
2019-03-12T08:19:26.362Z,62.03
2019-03-12T08:20:26.355Z,59.61
2019-03-12T08:21:26.330Z,62.22
2019-03-12T08:22:26.331Z,61.96
2019-03-12T08:23:26.318Z,60.77
2019-03-12T08:24:26.321Z,58.91
2019-03-12T08:25:26.304Z,59.14
2019-03-12T08:26:26.297Z,60.79
2019-03-12T08:27:26.369Z,59.68
2019-03-12T08:28:26.286Z,59.22
2019-03-12T08:29:26.291Z,59.63
2019-03-12T08:30:26.273Z,57.65
2019-03-12T08:31:26.261Z,57.96
2019-03-12T08:32:26.255Z,57.62
2019-03-12T08:33:26.250Z,58.16
2019-03-12T08:34:26.253Z,58.89
2019-03-12T08:35:26.345Z,57.26
2019-03-12T08:36:26.229Z,58.70
2019-03-12T08:37:26.219Z,58.81
2019-03-12T08:38:26.219Z,59.53
2019-03-12T08:39:26.219Z,59.72
2019-03-12T08:40:26.207Z,61.52
2019-03-12T08:41:26.189Z,59.28
2019-03-12T08:42:26.195Z,61.32
2019-03-12T08:43:26.180Z,62.93
2019-03-12T08:44:26.538Z,63.99
2019-03-12T08:45:27.162Z,65.41
2019-03-12T08:46:26.151Z,63.59
2019-03-12T08:47:26.162Z,61.78
2019-03-12T08:48:26.148Z,60.57
2019-03-12T08:49:26.155Z,62.48
2019-03-12T08:50:26.133Z,63.56
2019-03-12T08:51:26.133Z,61.13
2019-03-12T08:52:26.116Z,61.03
2019-03-12T08:53:26.108Z,60.69
2019-03-12T08:54:26.097Z,60.82
2019-03-12T08:55:26.101Z,60.69
2019-03-12T08:56:26.088Z,58.01
2019-03-12T08:57:26.077Z,58.84
2019-03-12T08:58:26.079Z,60.23
2019-03-12T08:59:26.060Z,61.19
2019-03-12T09:00:26.065Z,60.54
2019-03-12T09:01:26.050Z,59.92
2019-03-12T09:02:26.053Z,60.60
2019-03-12T09:03:26.058Z,62.59
2019-03-12T09:04:26.058Z,63.10
2019-03-12T09:05:26.056Z,62.38
2019-03-12T09:06:26.039Z,62.12
2019-03-12T09:07:26.023Z,61.32
2019-03-12T09:08:26.011Z,62.04
2019-03-12T09:09:26.027Z,62.04
2019-03-12T09:10:26.037Z,60.85
2019-03-12T09:11:26.018Z,60.51
2019-03-12T09:12:26.006Z,59.77
2019-03-12T09:13:26.016Z,61.04
2019-03-12T09:14:26.022Z,62.07
2019-03-12T09:15:26.029Z,64.24
2019-03-12T09:16:25.994Z,62.55
2019-03-12T09:17:25.991Z,61.78
2019-03-12T09:18:25.980Z,60.51
2019-03-12T09:19:25.976Z,61.07
2019-03-12T09:20:25.983Z,58.70
2019-03-12T09:21:25.955Z,59.35
2019-03-12T09:22:25.951Z,59.04
2019-03-12T09:23:25.962Z,59.17
2019-03-12T09:24:25.938Z,59.07
2019-03-12T09:25:25.931Z,59.35
2019-03-12T09:26:25.932Z,60.22
2019-03-12T09:27:25.911Z,59.37
2019-03-12T09:28:25.907Z,58.16
2019-03-12T09:29:25.900Z,58.75
2019-03-12T09:30:25.897Z,58.03
2019-03-12T09:31:25.899Z,57.50
2019-03-12T09:32:25.899Z,57.52
2019-03-12T09:33:25.896Z,57.75
2019-03-12T09:34:25.918Z,59.19
2019-03-12T09:35:25.890Z,59.37
2019-03-12T09:36:25.934Z,57.52
2019-03-12T09:37:25.925Z,57.03
2019-03-12T09:38:25.868Z,57.52
2019-03-12T09:39:25.859Z,57.68
2019-03-12T09:40:25.854Z,59.09
2019-03-12T09:41:25.858Z,57.81
2019-03-12T09:42:25.841Z,59.51
2019-03-12T09:43:25.844Z,59.28
2019-03-12T09:44:25.835Z,57.55
2019-03-12T09:45:25.856Z,59.30
2019-03-12T09:46:25.855Z,59.48
2019-03-12T09:47:25.833Z,60.25
2019-03-12T09:48:25.839Z,57.88
2019-03-12T09:49:27.630Z,58.06
2019-03-12T09:50:26.839Z,58.22
2019-03-12T09:51:25.826Z,57.78
2019-03-12T09:52:25.809Z,58.52
2019-03-12T09:53:25.816Z,57.50
2019-03-12T09:54:25.795Z,57.39
2019-03-12T09:55:25.790Z,57.90
2019-03-12T09:56:25.788Z,56.44
2019-03-12T09:57:25.765Z,57.03
2019-03-12T09:58:25.766Z,57.85
2019-03-12T09:59:25.812Z,57.13
2019-03-12T10:00:25.750Z,55.66
2019-03-12T10:01:25.758Z,57.51
2019-03-12T10:02:25.738Z,55.69
2019-03-12T10:03:25.727Z,56.13
2019-03-12T10:04:25.930Z,56.18
2019-03-12T10:05:25.713Z,56.05
2019-03-12T10:06:25.724Z,57.23
2019-03-12T10:07:25.695Z,56.62
2019-03-12T10:08:25.683Z,55.77
2019-03-12T10:09:25.677Z,55.98
2019-03-12T10:10:25.786Z,55.77
2019-03-12T10:11:25.672Z,55.59
2019-03-12T10:12:25.664Z,56.10
2019-03-12T10:13:25.647Z,56.21
2019-03-12T10:14:25.643Z,56.00
2019-03-12T10:15:25.630Z,55.79
2019-03-12T10:16:25.626Z,55.38
2019-03-12T10:17:25.622Z,56.05
2019-03-12T10:18:25.605Z,55.49
2019-03-12T10:19:25.597Z,57.91
2019-03-12T10:20:25.602Z,56.98
2019-03-12T10:21:25.581Z,56.39
2019-03-12T10:22:25.585Z,55.95
2019-03-12T10:23:25.565Z,55.95
2019-03-12T10:24:28.682Z,56.80
2019-03-12T10:25:25.552Z,56.77
2019-03-12T10:26:25.538Z,56.31
2019-03-12T10:27:25.551Z,57.26
2019-03-12T10:28:25.528Z,56.85
2019-03-12T10:29:57.516Z,57.89
2019-03-12T10:30:25.507Z,56.70
2019-03-12T10:31:25.510Z,55.36
2019-03-12T10:32:25.529Z,54.97
2019-03-12T10:33:25.539Z,55.07
2019-03-12T10:34:29.953Z,55.38
2019-03-12T10:35:26.539Z,54.35
2019-03-12T10:36:25.511Z,55.26
2019-03-12T10:37:25.530Z,54.86
2019-03-12T10:38:25.500Z,55.18
2019-03-12T10:39:25.492Z,55.28
2019-03-12T10:40:25.494Z,53.76
2019-03-12T10:41:25.480Z,55.49
2019-03-12T10:42:25.490Z,55.26
2019-03-12T10:43:25.468Z,53.94
2019-03-12T10:44:25.461Z,54.97
2019-03-12T10:45:25.455Z,55.57
2019-03-12T10:46:25.444Z,54.25
2019-03-12T10:47:25.473Z,53.61
2019-03-12T10:48:25.480Z,54.74
2019-03-12T10:49:36.998Z,54.12
2019-03-12T10:50:27.455Z,55.26
2019-03-12T10:51:25.452Z,52.91
2019-03-12T10:52:25.445Z,53.83
2019-03-12T10:53:25.442Z,55.05
2019-03-12T10:54:25.442Z,55.28
2019-03-12T10:55:25.433Z,54.06
2019-03-12T10:56:25.428Z,54.97
2019-03-12T10:57:25.423Z,54.46
2019-03-12T10:58:25.425Z,54.86
2019-03-12T10:59:25.404Z,55.28
2019-03-12T11:00:25.396Z,54.35
2019-03-12T11:01:25.398Z,53.71
2019-03-12T11:02:25.369Z,55.87
2019-03-12T11:03:26.388Z,53.91
2019-03-12T11:04:25.366Z,54.33
2019-03-12T11:05:25.358Z,53.42
2019-03-12T11:06:25.356Z,53.42
2019-03-12T11:07:25.344Z,53.55
2019-03-12T11:08:25.395Z,53.66
2019-03-12T11:09:25.333Z,53.66
2019-03-12T11:10:25.473Z,53.96
2019-03-12T11:11:25.313Z,53.68
2019-03-12T11:12:25.305Z,54.82
2019-03-12T11:13:25.317Z,54.30
2019-03-12T11:14:25.306Z,55.13
2019-03-12T11:15:25.286Z,54.79
2019-03-12T11:16:25.288Z,54.48
2019-03-12T11:17:25.276Z,54.90
2019-03-12T11:18:25.292Z,55.26
2019-03-12T11:19:25.278Z,55.23
2019-03-12T11:20:25.256Z,52.96
2019-03-12T11:21:25.248Z,54.20
2019-03-12T11:22:25.237Z,53.17
2019-03-12T11:23:25.246Z,53.35
2019-03-12T11:24:25.235Z,52.94
2019-03-12T11:25:27.586Z,53.25
2019-03-12T11:26:26.207Z,52.91
2019-03-12T11:27:25.216Z,52.76
2019-03-12T11:28:26.743Z,54.07
2019-03-12T11:29:26.201Z,53.14
2019-03-12T11:30:25.177Z,52.63
2019-03-12T11:31:25.193Z,53.33
2019-03-12T11:32:25.183Z,52.81
2019-03-12T11:33:25.172Z,53.33
2019-03-12T11:34:25.173Z,52.37
2019-03-12T11:35:25.164Z,52.48
2019-03-12T11:36:25.153Z,52.48
2019-03-12T11:37:25.162Z,52.58
2019-03-12T11:38:25.140Z,51.34
2019-03-12T11:39:25.151Z,51.96
2019-03-12T11:40:25.365Z,51.24
2019-03-12T11:41:25.146Z,51.24
2019-03-12T11:42:25.125Z,51.68
2019-03-12T11:43:25.121Z,51.37
2019-03-12T11:44:25.215Z,52.19
2019-03-12T11:45:35.652Z,54.41
2019-03-12T11:46:27.077Z,53.99
2019-03-12T11:47:25.128Z,54.58
2019-03-12T11:48:25.061Z,54.33
2019-03-12T11:49:25.095Z,52.83
2019-03-12T11:50:25.076Z,54.79
2019-03-12T11:51:25.053Z,54.69
2019-03-12T11:52:25.031Z,53.97
2019-03-12T11:53:25.037Z,53.94
2019-03-12T11:54:25.036Z,54.02
2019-03-12T11:55:25.021Z,53.63
2019-03-12T11:56:24.997Z,53.33
2019-03-12T11:57:25.019Z,53.61
2019-03-12T11:58:24.985Z,52.91
2019-03-12T11:59:24.997Z,53.02
2019-03-12T12:00:25.116Z,54.05
2019-03-12T12:01:24.968Z,52.81
2019-03-12T12:02:24.975Z,51.98
2019-03-12T12:03:24.955Z,52.71
2019-03-12T12:04:25.988Z,52.66
2019-03-12T12:05:24.968Z,52.55
2019-03-12T12:06:24.969Z,52.98
2019-03-12T12:07:24.955Z,52.86
2019-03-12T12:08:25.067Z,53.17
2019-03-12T12:09:24.977Z,52.96
2019-03-12T12:10:24.932Z,53.06
2019-03-12T12:11:24.920Z,52.86
2019-03-12T12:12:24.973Z,53.35
2019-03-12T12:13:24.929Z,53.22
2019-03-12T12:14:24.901Z,52.22
2019-03-12T12:15:24.904Z,52.53
2019-03-12T12:16:24.906Z,52.83
2019-03-12T12:17:24.887Z,53.12
2019-03-12T12:18:24.877Z,53.41
2019-03-12T12:19:25.886Z,52.22
2019-03-12T12:20:30.085Z,52.42
2019-03-12T12:21:26.866Z,52.26
2019-03-12T12:22:24.858Z,52.37
2019-03-12T12:23:24.847Z,52.78
2019-03-12T12:24:26.590Z,53.09
2019-03-12T12:25:25.868Z,52.47
2019-03-12T12:26:24.856Z,52.98
2019-03-12T12:27:24.834Z,53.17
2019-03-12T12:28:24.877Z,52.96
2019-03-12T12:29:24.824Z,53.68
2019-03-12T12:30:24.816Z,52.94
2019-03-12T12:31:24.800Z,52.94
2019-03-12T12:32:24.793Z,52.91
2019-03-12T12:33:24.816Z,52.71
2019-03-12T12:34:24.805Z,53.63
2019-03-12T12:35:24.811Z,53.71
2019-03-12T12:36:24.821Z,52.78
2019-03-12T12:37:24.831Z,52.25
2019-03-12T12:38:24.804Z,52.97
2019-03-12T12:39:24.800Z,51.32
2019-03-12T12:40:24.805Z,52.04
2019-03-12T12:41:24.792Z,51.86
2019-03-12T12:42:24.797Z,52.06
2019-03-12T12:43:24.785Z,52.76
2019-03-12T12:44:24.773Z,52.84
2019-03-12T12:45:24.774Z,52.64
2019-03-12T12:46:24.759Z,51.81
2019-03-12T12:47:24.775Z,51.32
2019-03-12T12:48:24.738Z,50.81
2019-03-12T12:49:24.729Z,51.55
2019-03-12T12:50:24.750Z,51.55
2019-03-12T12:51:24.707Z,51.73
2019-03-12T12:52:24.704Z,50.93